createdAt,value
2023-04-10T00:02:01.118Z,98012.09
2023-04-10T00:04:28.457Z,98015.88
2023-04-10T00:06:57.265Z,98010.69
2023-04-10T00:09:24.366Z,98017.50
2023-04-10T00:11:51.574Z,98012.34
2023-04-10T00:14:18.635Z,98020.22
2023-04-10T00:16:45.725Z,98019.63
2023-04-10T00:19:12.947Z,98017.50
2023-04-10T00:21:40.177Z,98003.19
2023-04-10T00:24:08.788Z,98012.09
2023-04-10T00:26:36.553Z,98005.03
2023-04-10T00:29:03.788Z,97999.63
2023-04-10T00:31:31.050Z,97992.13
2023-04-10T00:33:58.180Z,97999.44
2023-04-10T00:36:25.227Z,97998.59
2023-04-10T00:38:52.778Z,97994.22
2023-04-10T00:41:21.340Z,97996.94
2023-04-10T00:43:48.406Z,97995.88
2023-04-10T00:46:15.612Z,97994.22
2023-04-10T00:48:42.741Z,97990.91
2023-04-10T00:51:09.970Z,97990.47
2023-04-10T00:53:37.026Z,97992.38
2023-04-10T00:56:04.303Z,97985.91
2023-04-10T00:58:33.001Z,97981.56
2023-04-10T01:01:00.204Z,97980.09
2023-04-10T01:03:27.601Z,97984.47
2023-04-10T01:06:01.407Z,97980.50
2023-04-10T01:08:36.734Z,97979.91
2023-04-10T01:11:06.894Z,97993.41
2023-04-10T01:13:39.870Z,97994.22
2023-04-10T01:16:11.818Z,97987.16
2023-04-10T01:18:41.913Z,97984.25
2023-04-10T01:21:11.417Z,97978.84
2023-04-10T01:23:59.603Z,97981.75
2023-04-10T01:26:36.828Z,97978.00
2023-04-10T01:29:08.044Z,97977.59
2023-04-10T01:31:36.737Z,97972.91
2023-04-10T01:34:05.999Z,97971.31
2023-04-10T01:36:36.236Z,97966.16
2023-04-10T01:39:04.202Z,97970.63
2023-04-10T01:41:31.727Z,97965.09
2023-04-10T01:46:29.919Z,97968.88
2023-04-10T01:48:59.902Z,97972.59
2023-04-10T01:51:27.473Z,97969.03
2023-04-10T01:53:55.208Z,97961.16
2023-04-10T01:56:25.784Z,97955.19
2023-04-10T01:58:53.241Z,97953.31
2023-04-10T02:01:29.077Z,97948.47
2023-04-10T02:03:59.216Z,97943.69
2023-04-10T02:06:29.795Z,97942.81
2023-04-10T02:08:59.369Z,97942.16
2023-04-10T02:11:32.270Z,97936.75
2023-04-10T02:14:01.469Z,97941.75
2023-04-10T02:16:29.675Z,97942.22
2023-04-10T02:18:59.131Z,97941.59
2023-04-10T02:21:26.790Z,97937.47
2023-04-10T02:23:54.149Z,97938.72
2023-04-10T02:26:21.452Z,97940.16
2023-04-10T02:28:48.605Z,97934.75
2023-04-10T02:31:18.749Z,97928.13
2023-04-10T02:33:45.926Z,97937.72
2023-04-10T02:36:14.786Z,97933.78
2023-04-10T02:38:41.895Z,97929.22
2023-04-10T02:41:10.499Z,97918.81
2023-04-10T02:43:37.625Z,97920.28
2023-04-10T02:46:05.451Z,97915.53
2023-04-10T02:48:38.164Z,97918.84
2023-04-10T02:51:05.637Z,97910.78
2023-04-10T02:53:34.541Z,97917.69
2023-04-10T02:56:02.474Z,97913.94
2023-04-10T02:58:30.262Z,97911.69
2023-04-10T03:00:58.144Z,97911.03
2023-04-10T03:03:43.489Z,97909.38
2023-04-10T03:06:11.400Z,97907.94
2023-04-10T03:08:41.971Z,97907.13
2023-04-10T03:11:09.063Z,97906.94
2023-04-10T03:13:36.101Z,97906.19
2023-04-10T03:16:03.329Z,97901.66
2023-04-10T03:18:30.638Z,97898.53
2023-04-10T03:20:57.820Z,97885.06
2023-04-10T03:23:25.340Z,97890.25
2023-04-10T03:25:54.043Z,97884.06
2023-04-10T03:28:24.396Z,97881.13
2023-04-10T03:30:51.446Z,97879.84
2023-04-10T03:33:18.526Z,97880.44
2023-04-10T03:35:46.116Z,97884.94
2023-04-10T03:38:13.222Z,97868.09
2023-04-10T03:40:41.374Z,97872.91
2023-04-10T03:43:11.979Z,97869.34
2023-04-10T03:45:39.062Z,97878.28
2023-04-10T03:48:06.430Z,97880.44
2023-04-10T03:50:41.181Z,97873.16
2023-04-10T03:53:08.273Z,97878.34
2023-04-10T03:55:35.587Z,97875.69
2023-04-10T03:58:03.356Z,97874.78
2023-04-10T04:00:32.935Z,97878.97
2023-04-10T04:03:20.872Z,97881.31
2023-04-10T04:06:08.357Z,97873.38
2023-04-10T04:08:50.271Z,97866.59
2023-04-10T04:11:46.536Z,97862.22
2023-04-10T04:14:33.910Z,97863.00
2023-04-10T04:17:21.068Z,97862.94
2023-04-10T04:20:14.073Z,97859.41
2023-04-10T04:23:19.574Z,97861.44
2023-04-10T04:26:05.425Z,97857.28
2023-04-10T04:29:02.162Z,97847.75
2023-04-10T04:31:53.086Z,97848.59
2023-04-10T04:34:37.095Z,97845.19
2023-04-10T04:37:14.631Z,97840.59
2023-04-10T04:40:00.120Z,97834.38
2023-04-10T04:42:59.639Z,97837.72
2023-04-10T04:45:56.617Z,97830.44
2023-04-10T04:48:47.635Z,97834.31
2023-04-10T04:51:34.413Z,97833.44
2023-04-10T04:54:08.351Z,97830.16
2023-04-10T04:56:58.952Z,97826.84
2023-04-10T04:59:52.034Z,97835.88
2023-04-10T05:02:37.727Z,97826.91
2023-04-10T05:05:23.416Z,97832.63
2023-04-10T05:08:13.386Z,97825.03
2023-04-10T05:10:47.049Z,97832.47
2023-04-10T05:13:23.541Z,97824.91
2023-04-10T05:16:26.395Z,97832.38
2023-04-10T05:18:58.735Z,97825.59
2023-04-10T05:21:44.925Z,97814.19
2023-04-10T05:24:45.419Z,97824.38
2023-04-10T05:27:15.522Z,97831.00
2023-04-10T05:30:21.320Z,97830.66
2023-04-10T05:33:12.061Z,97824.31
2023-04-10T05:36:03.587Z,97824.22
2023-04-10T05:38:52.606Z,97825.59
2023-04-10T05:41:48.528Z,97826.19
2023-04-10T05:44:39.361Z,97818.84
2023-04-10T05:47:25.478Z,97820.13
2023-04-10T05:50:11.943Z,97818.38
2023-04-10T05:52:55.236Z,97816.69
2023-04-10T05:55:44.525Z,97813.81
2023-04-10T05:58:36.212Z,97812.91
2023-04-10T06:01:15.081Z,97817.81
2023-04-10T06:03:54.053Z,97820.81
2023-04-10T06:06:22.266Z,97821.09
2023-04-10T06:08:49.944Z,97820.44
2023-04-10T06:11:17.591Z,97808.44
2023-04-10T06:13:51.873Z,97805.41
2023-04-10T06:16:22.309Z,97814.19
2023-04-10T06:18:49.547Z,97810.69
2023-04-10T06:21:17.043Z,97803.91
2023-04-10T06:23:46.647Z,97806.59
2023-04-10T06:26:14.279Z,97803.41
2023-04-10T06:28:41.968Z,97807.22
2023-04-10T06:31:13.173Z,97810.25
2023-04-10T06:33:40.993Z,97811.72
2023-04-10T06:36:10.805Z,97807.59
2023-04-10T06:38:47.662Z,97802.41
2023-04-10T06:41:15.301Z,97794.94
2023-04-10T06:43:42.399Z,97789.16
2023-04-10T06:46:09.547Z,97798.25
2023-04-10T06:48:38.312Z,97790.75
2023-04-10T06:51:06.842Z,97778.84
2023-04-10T06:53:34.456Z,97774.97
2023-04-10T06:56:03.262Z,97775.69
2023-04-10T06:58:32.140Z,97776.88
2023-04-10T07:00:59.335Z,97769.66
2023-04-10T07:03:27.017Z,97760.56
2023-04-10T07:05:56.130Z,97760.31
2023-04-10T07:08:23.267Z,97751.84
2023-04-10T07:10:50.462Z,97744.53
2023-04-10T07:13:17.689Z,97748.63
2023-04-10T07:15:44.924Z,97741.38
2023-04-10T07:18:12.198Z,97747.56
2023-04-10T07:20:39.387Z,97743.91
2023-04-10T07:23:08.095Z,97742.38
2023-04-10T07:25:36.363Z,97733.75
2023-04-10T07:28:03.489Z,97737.06
2023-04-10T07:30:30.659Z,97736.91
2023-04-10T07:32:58.099Z,97734.78
2023-04-10T07:35:26.199Z,97748.69
2023-04-10T07:37:53.320Z,97748.50
2023-04-10T07:40:23.002Z,97759.00
2023-04-10T07:42:51.504Z,97756.72
2023-04-10T07:45:20.382Z,97751.16
2023-04-10T07:47:47.992Z,97755.03
2023-04-10T07:50:15.633Z,97747.47
2023-04-10T07:52:43.294Z,97747.78
2023-04-10T07:55:11.249Z,97749.81
2023-04-10T07:57:42.117Z,97744.34
2023-04-10T08:00:09.912Z,97744.19
2023-04-10T08:02:40.316Z,97743.50
2023-04-10T08:05:08.401Z,97746.00
2023-04-10T08:07:36.214Z,97739.41
2023-04-10T08:10:03.493Z,97743.53
2023-04-10T08:12:33.366Z,97748.91
2023-04-10T08:15:02.909Z,97750.19
2023-04-10T08:17:30.585Z,97755.09
2023-04-10T08:19:58.221Z,97746.53
2023-04-10T08:22:26.118Z,97749.00
2023-04-10T08:24:53.535Z,97748.13
2023-04-10T08:27:21.388Z,97751.59
2023-04-10T08:29:48.459Z,97745.25
2023-04-10T08:32:16.971Z,97751.53
2023-04-10T08:34:45.199Z,97756.47
2023-04-10T08:37:13.179Z,97750.72
2023-04-10T08:39:40.777Z,97755.34
2023-04-10T08:42:08.535Z,97754.75
2023-04-10T08:44:35.801Z,97760.13
2023-04-10T08:47:04.543Z,97761.44
2023-04-10T08:49:54.155Z,97759.06
2023-04-10T08:52:21.964Z,97772.72
2023-04-10T08:54:51.580Z,97761.88
2023-04-10T08:57:19.627Z,97755.09
2023-04-10T08:59:47.712Z,97757.13
2023-04-10T09:02:15.305Z,97759.97
2023-04-10T09:04:47.958Z,97752.94
2023-04-10T09:07:16.095Z,97738.56
2023-04-10T09:09:44.108Z,97745.50
2023-04-10T09:12:12.613Z,97763.03
2023-04-10T09:14:41.297Z,97758.22
2023-04-10T09:17:16.480Z,97766.97
2023-04-10T09:19:46.149Z,97751.91
2023-04-10T09:22:13.948Z,97763.22
2023-04-10T09:24:42.918Z,97776.72
2023-04-10T09:27:10.260Z,97758.22
2023-04-10T09:29:45.362Z,97759.44
2023-04-10T09:32:12.959Z,97757.28
2023-04-10T09:34:54.923Z,97751.09
2023-04-10T09:37:23.732Z,97753.28
2023-04-10T09:39:50.831Z,97764.59
2023-04-10T09:42:29.050Z,97762.28
2023-04-10T09:44:57.391Z,97756.84
2023-04-10T09:47:25.100Z,97763.56
2023-04-10T09:49:54.046Z,97757.78
2023-04-10T09:52:22.628Z,97770.72
2023-04-10T09:54:50.367Z,97778.34
2023-04-10T09:57:18.395Z,97785.50
2023-04-10T09:59:48.775Z,97777.72
2023-04-10T10:02:17.629Z,97787.69
2023-04-10T10:04:45.914Z,97775.44
2023-04-10T10:07:15.947Z,97777.47
2023-04-10T10:09:44.136Z,97790.31
2023-04-10T10:12:11.904Z,97792.53
2023-04-10T10:14:43.430Z,97782.69
2023-04-10T10:17:12.227Z,97795.06
2023-04-10T10:19:46.144Z,97785.44
2023-04-10T10:22:15.424Z,97783.44
2023-04-10T10:24:45.834Z,97774.28
2023-04-10T10:27:15.365Z,97781.88
2023-04-10T10:29:44.446Z,97779.53
2023-04-10T10:32:12.287Z,97779.38
2023-04-10T10:34:39.940Z,97796.22
2023-04-10T10:37:08.314Z,97786.00
2023-04-10T10:39:43.376Z,97789.31
2023-04-10T10:42:16.139Z,97795.50
2023-04-10T10:44:46.430Z,97792.56
2023-04-10T10:47:16.223Z,97801.81
2023-04-10T10:49:53.660Z,97804.25
2023-04-10T10:52:43.312Z,97810.44
2023-04-10T10:55:37.659Z,97799.41
2023-04-10T10:58:07.205Z,97812.78
2023-04-10T11:00:52.937Z,97813.94
2023-04-10T11:03:29.448Z,97821.03
2023-04-10T11:05:57.364Z,97815.59
2023-04-10T11:08:45.342Z,97823.06
2023-04-10T11:11:13.970Z,97824.81
2023-04-10T11:13:43.062Z,97836.34
2023-04-10T11:16:10.590Z,97825.19
2023-04-10T11:19:10.593Z,97827.81
2023-04-10T11:22:01.922Z,97824.31
2023-04-10T11:24:30.096Z,97821.84
2023-04-10T11:26:57.218Z,97810.63
2023-04-10T11:29:35.393Z,97816.63
2023-04-10T11:32:04.721Z,97821.22
2023-04-10T11:34:32.870Z,97820.41
2023-04-10T11:37:00.387Z,97826.44
2023-04-10T11:39:27.799Z,97832.41
2023-04-10T11:41:55.730Z,97824.25
2023-04-10T11:44:30.545Z,97831.25
2023-04-10T11:47:00.173Z,97830.19
2023-04-10T11:49:28.649Z,97833.44
2023-04-10T11:51:56.937Z,97835.78
2023-04-10T11:54:25.610Z,97832.69
2023-04-10T11:56:59.162Z,97837.22
2023-04-10T11:59:27.317Z,97843.53
2023-04-10T12:01:54.755Z,97841.56
2023-04-10T12:04:24.373Z,97851.47
2023-04-10T12:06:53.141Z,97852.72
2023-04-10T12:09:22.273Z,97861.44
2023-04-10T12:11:51.202Z,97856.91
2023-04-10T12:14:19.805Z,97866.41
2023-04-10T12:16:47.507Z,97869.69
2023-04-10T12:19:15.962Z,97878.81
2023-04-10T12:21:44.904Z,97875.75
2023-04-10T12:24:12.604Z,97871.16
2023-04-10T12:26:47.727Z,97883.63
2023-04-10T12:29:15.017Z,97882.16
2023-04-10T12:31:43.232Z,97891.50
2023-04-10T12:34:18.830Z,97894.59
2023-04-10T12:36:54.116Z,97891.69
2023-04-10T12:39:23.009Z,97892.09
2023-04-10T12:41:51.781Z,97905.78
2023-04-10T12:44:19.366Z,97907.81
2023-04-10T12:46:47.003Z,97901.22
2023-04-10T12:49:15.426Z,97913.03
2023-04-10T12:51:43.262Z,97912.63
2023-04-10T12:54:12.771Z,97903.69
2023-04-10T12:56:41.812Z,97912.88
2023-04-10T12:59:10.056Z,97915.75
2023-04-10T13:01:37.906Z,97914.53
2023-04-10T13:04:06.126Z,97918.25
2023-04-10T13:06:34.083Z,97920.28
2023-04-10T13:09:02.161Z,97923.38
2023-04-10T13:11:30.646Z,97922.75
2023-04-10T13:13:58.672Z,97922.13
2023-04-10T13:16:27.285Z,97921.28
2023-04-10T13:18:54.666Z,97917.91
2023-04-10T13:21:23.642Z,97920.47
2023-04-10T13:23:51.193Z,97917.00
2023-04-10T13:26:18.878Z,97924.25
2023-04-10T13:28:48.397Z,97928.19
2023-04-10T13:31:16.587Z,97924.22
2023-04-10T13:33:44.861Z,97924.78
2023-04-10T13:36:11.972Z,97921.31
2023-04-10T13:38:40.203Z,97924.88
2023-04-10T13:41:08.027Z,97934.22
2023-04-10T13:43:36.294Z,97933.19
2023-04-10T13:46:05.837Z,97932.75
2023-04-10T13:48:40.478Z,97930.81
2023-04-10T13:51:09.079Z,97943.25
2023-04-10T13:53:36.632Z,97943.28
2023-04-10T13:56:04.217Z,97940.44
2023-04-10T13:58:32.331Z,97939.38
2023-04-10T14:01:00.489Z,97941.25
2023-04-10T14:03:30.317Z,97939.59
2023-04-10T14:05:57.534Z,97950.53
2023-04-10T14:08:25.604Z,97958.47
2023-04-10T14:10:53.653Z,97960.72
2023-04-10T14:13:21.250Z,97959.28
2023-04-10T14:15:49.421Z,97958.06
2023-04-10T14:18:17.038Z,97968.22
2023-04-10T14:20:46.097Z,97968.63
2023-04-10T14:23:14.209Z,97968.59
2023-04-10T14:25:42.525Z,97972.94
2023-04-10T14:28:10.099Z,97966.28
2023-04-10T14:30:37.701Z,97968.59
2023-04-10T14:33:06.379Z,97975.00
2023-04-10T14:35:34.023Z,97971.88
2023-04-10T14:38:04.207Z,97986.16
2023-04-10T14:40:31.822Z,97984.94
2023-04-10T14:43:00.737Z,97988.25
2023-04-10T14:45:29.027Z,97983.06
2023-04-10T14:47:57.104Z,97983.09
2023-04-10T14:50:25.424Z,97988.88
2023-04-10T14:52:53.505Z,97992.88
2023-04-10T14:55:23.394Z,97998.69
2023-04-10T14:57:51.081Z,97999.25
2023-04-10T15:00:19.276Z,98007.72
2023-04-10T15:02:46.553Z,98007.13
2023-04-10T15:05:13.790Z,98015.75
2023-04-10T15:07:42.072Z,98023.16
2023-04-10T15:10:10.057Z,98025.81
2023-04-10T15:12:39.398Z,98027.38
2023-04-10T15:15:07.351Z,98024.66
2023-04-10T15:17:34.756Z,98028.66
2023-04-10T15:20:02.554Z,98029.34
2023-04-10T15:22:30.137Z,98025.25
2023-04-10T15:24:57.991Z,98031.25
2023-04-10T15:27:26.005Z,98041.63
2023-04-10T15:29:55.227Z,98044.13
2023-04-10T15:32:23.772Z,98042.66
2023-04-10T15:34:52.031Z,98050.13
2023-04-10T15:37:19.125Z,98061.13
2023-04-10T15:39:47.198Z,98059.06
2023-04-10T15:42:14.924Z,98057.81
2023-04-10T15:44:47.558Z,98063.22
2023-04-10T15:47:18.040Z,98063.44
2023-04-10T15:49:45.963Z,98077.75
2023-04-10T15:52:13.535Z,98080.25
2023-04-10T15:54:41.133Z,98079.81
2023-04-10T15:57:09.213Z,98086.88
2023-04-10T15:59:37.549Z,98090.19
2023-04-10T16:02:04.734Z,98094.34
2023-04-10T16:04:33.555Z,98106.59
2023-04-10T16:07:01.458Z,98107.00
2023-04-10T16:09:29.087Z,98107.63
2023-04-10T16:11:56.307Z,98108.22
2023-04-10T16:14:24.029Z,98108.25
2023-04-10T16:16:51.263Z,98117.19
2023-04-10T16:19:18.863Z,98116.75
2023-04-10T16:21:47.639Z,98122.34
2023-04-10T16:24:15.134Z,98121.94
2023-04-10T16:26:42.860Z,98131.91
2023-04-10T16:29:10.611Z,98138.53
2023-04-10T16:31:38.814Z,98138.53
2023-04-10T16:34:06.764Z,98140.19
2023-04-10T16:36:34.196Z,98141.25
2023-04-10T16:39:03.278Z,98140.19
2023-04-10T16:41:30.419Z,98149.31
2023-04-10T16:43:57.560Z,98146.00
2023-04-10T16:46:24.791Z,98143.72
2023-04-10T16:48:51.919Z,98149.34
2023-04-10T16:51:19.147Z,98153.28
2023-04-10T16:53:46.340Z,98161.19
2023-04-10T16:56:15.375Z,98159.72
2023-04-10T16:58:43.146Z,98159.31
2023-04-10T17:01:14.327Z,98166.16
2023-04-10T17:03:41.606Z,98157.03
2023-04-10T17:06:08.714Z,98171.38
2023-04-10T17:08:35.852Z,98164.69
2023-04-10T17:11:04.430Z,98165.34
2023-04-10T17:13:33.300Z,98164.47
2023-04-10T17:16:00.570Z,98167.59
2023-04-10T17:18:27.646Z,98171.97
2023-04-10T17:20:55.347Z,98177.38
2023-04-10T17:23:23.605Z,98176.94
2023-04-10T17:25:51.268Z,98176.94
2023-04-10T17:28:19.368Z,98176.31
2023-04-10T17:30:49.011Z,98183.38
2023-04-10T17:33:16.494Z,98176.53
2023-04-10T17:35:43.881Z,98183.38
2023-04-10T17:38:11.480Z,98184.22
2023-04-10T17:40:38.886Z,98183.59
2023-04-10T17:43:06.979Z,98183.59
2023-04-10T17:45:36.631Z,98179.84
2023-04-10T17:48:06.274Z,98195.22
2023-04-10T17:50:33.733Z,98182.13
2023-04-10T17:53:01.226Z,98188.38
2023-04-10T17:55:29.792Z,98189.38
2023-04-10T17:57:58.061Z,98194.19
2023-04-10T18:00:25.262Z,98192.72
2023-04-10T18:02:52.601Z,98197.91
2023-04-10T18:05:21.461Z,98191.25
2023-04-10T18:07:49.938Z,98188.75
2023-04-10T18:10:17.682Z,98190.22
2023-04-10T18:12:44.897Z,98203.75
2023-04-10T18:15:12.708Z,98200.00
2023-04-10T18:17:40.994Z,98200.81
2023-04-10T18:20:08.919Z,98201.66
2023-04-10T18:22:38.036Z,98198.53
2023-04-10T18:25:05.762Z,98203.94
2023-04-10T18:27:32.831Z,98199.38
2023-04-10T18:30:00.413Z,98202.69
2023-04-10T18:32:28.109Z,98203.31
2023-04-10T18:34:55.207Z,98202.28
2023-04-10T18:37:22.357Z,98199.56
2023-04-10T18:39:50.977Z,98212.25
2023-04-10T18:42:18.034Z,98212.25
2023-04-10T18:44:45.104Z,98217.03
2023-04-10T18:47:12.318Z,98209.75
2023-04-10T18:49:39.519Z,98211.44
2023-04-10T18:52:06.653Z,98218.69
2023-04-10T18:54:34.186Z,98223.03
2023-04-10T18:57:02.982Z,98214.13
2023-04-10T18:59:30.022Z,98217.22
2023-04-10T19:01:57.862Z,98221.19
2023-04-10T19:04:25.244Z,98215.97
2023-04-10T19:06:52.475Z,98214.53
2023-04-10T19:09:19.896Z,98221.81
2023-04-10T19:11:46.984Z,98227.19
2023-04-10T19:14:16.244Z,98225.97
2023-04-10T19:16:43.315Z,98230.72
2023-04-10T19:19:11.392Z,98231.53
2023-04-10T19:21:38.971Z,98234.25
2023-04-10T19:24:06.207Z,98236.13
2023-04-10T19:26:33.351Z,98237.78
2023-04-10T19:29:00.468Z,98248.38
2023-04-10T19:31:29.080Z,98235.91
2023-04-10T19:33:56.231Z,98241.31
2023-04-10T19:36:23.367Z,98235.31
2023-04-10T19:38:50.435Z,98232.81
2023-04-10T19:41:18.013Z,98243.59
2023-04-10T19:43:45.130Z,98245.91
2023-04-10T19:46:18.457Z,98245.91
2023-04-10T19:48:47.418Z,98245.28
2023-04-10T19:51:15.016Z,98239.03
2023-04-10T19:53:42.471Z,98243.84
2023-04-10T19:56:09.645Z,98242.38
2023-04-10T19:58:55.756Z,98244.25
2023-04-10T20:01:23.054Z,98248.19
2023-04-10T20:03:51.693Z,98250.47
2023-04-10T20:06:18.900Z,98248.38
2023-04-10T20:08:45.966Z,98251.28
2023-04-10T20:11:13.036Z,98251.50
2023-04-10T20:13:40.528Z,98250.91
2023-04-10T20:16:08.034Z,98249.63
2023-04-10T20:18:35.152Z,98257.75
2023-04-10T20:21:03.722Z,98266.25
2023-04-10T20:23:30.897Z,98261.06
2023-04-10T20:25:58.198Z,98262.31
2023-04-10T20:28:25.266Z,98265.63
2023-04-10T20:30:52.318Z,98276.22
2023-04-10T20:33:19.359Z,98269.38
2023-04-10T20:35:46.424Z,98271.66
2023-04-10T20:38:14.988Z,98278.53
2023-04-10T20:40:42.036Z,98271.84
2023-04-10T20:43:09.664Z,98268.34
2023-04-10T20:45:37.260Z,98276.63
2023-04-10T20:48:04.753Z,98277.69
2023-04-10T20:50:32.237Z,98272.28
2023-04-10T20:52:59.803Z,98280.38
2023-04-10T20:55:28.344Z,98286.00
2023-04-10T20:57:55.422Z,98287.44
2023-04-10T21:00:22.838Z,98288.91
2023-04-10T21:02:50.356Z,98277.47
2023-04-10T21:05:17.528Z,98274.34
2023-04-10T21:07:44.696Z,98273.13
2023-04-10T21:10:11.754Z,98276.88
2023-04-10T21:12:40.711Z,98286.63
2023-04-10T21:15:08.432Z,98281.41
2023-04-10T21:17:35.551Z,98286.00
2023-04-10T21:20:02.685Z,98275.81
2023-04-10T21:22:29.839Z,98285.16
2023-04-10T21:24:56.968Z,98283.50
2023-04-10T21:27:24.229Z,98276.03
2023-04-10T21:29:52.762Z,98291.19
2023-04-10T21:32:19.946Z,98288.28
2023-04-10T21:34:47.233Z,98300.94
2023-04-10T21:37:14.341Z,98295.97
2023-04-10T21:39:41.361Z,98289.53
2023-04-10T21:42:08.496Z,98292.03
2023-04-10T21:44:35.564Z,98297.00
2023-04-10T21:47:04.657Z,98295.13
2023-04-10T21:49:31.768Z,98293.47
2023-04-10T21:51:58.820Z,98294.31
2023-04-10T21:54:25.897Z,98298.47
2023-04-10T21:56:52.970Z,98298.47
2023-04-10T21:59:20.066Z,98301.38
2023-04-10T22:01:47.329Z,98298.84
2023-04-10T22:04:16.154Z,98304.25
2023-04-10T22:06:43.298Z,98304.88
2023-04-10T22:09:10.932Z,98305.91
2023-04-10T22:11:38.385Z,98305.50
2023-04-10T22:14:15.773Z,98305.50
2023-04-10T22:16:44.631Z,98304.25
2023-04-10T22:19:11.833Z,98302.19
2023-04-10T22:21:40.401Z,98299.28
2023-04-10T22:24:07.725Z,98309.47
2023-04-10T22:26:34.815Z,98313.41
2023-04-10T22:29:03.490Z,98309.03
2023-04-10T22:31:30.592Z,98313.22
2023-04-10T22:33:57.697Z,98311.31
2023-04-10T22:36:24.924Z,98314.66
2023-04-10T22:38:53.933Z,98309.88
2023-04-10T22:41:21.173Z,98311.75
2023-04-10T22:43:48.222Z,98314.25
2023-04-10T22:46:15.435Z,98319.66
2023-04-10T22:48:42.504Z,98319.22
2023-04-10T22:51:10.450Z,98330.03
2023-04-10T22:53:37.716Z,98330.88
2023-04-10T22:56:06.699Z,98330.25
2023-04-10T22:58:33.745Z,98332.50
2023-04-10T23:01:00.782Z,98335.22
2023-04-10T23:03:28.385Z,98339.16
2023-04-10T23:05:55.470Z,98335.44
2023-04-10T23:08:22.560Z,98339.16
2023-04-10T23:10:52.521Z,98342.69
2023-04-10T23:13:21.595Z,98348.06
2023-04-10T23:15:49.249Z,98351.00
2023-04-10T23:18:16.334Z,98352.00
2023-04-10T23:20:44.466Z,98342.47
2023-04-10T23:23:11.532Z,98356.59
2023-04-10T23:25:38.589Z,98355.56
2023-04-10T23:28:05.768Z,98353.25
2023-04-10T23:30:35.741Z,98364.88
2023-04-10T23:33:02.877Z,98358.63
2023-04-10T23:35:30.450Z,98358.88
2023-04-10T23:37:57.588Z,98362.78
2023-04-10T23:40:25.050Z,98366.53
2023-04-10T23:42:52.141Z,98366.09
2023-04-10T23:45:19.349Z,98369.84
2023-04-10T23:47:50.224Z,98372.13
2023-04-10T23:50:18.023Z,98369.03
2023-04-10T23:52:48.049Z,98372.38
2023-04-10T23:55:15.129Z,98383.59
2023-04-10T23:57:42.391Z,98373.59
